createdAt,value
2018-05-11T00:01:47.155Z,12.10
2018-05-11T00:06:44.542Z,12.00
2018-05-11T00:09:12.939Z,12.00
2018-05-11T00:11:41.369Z,12.00
2018-05-11T00:14:09.044Z,11.70
2018-05-11T00:16:37.456Z,11.90
2018-05-11T00:19:05.511Z,11.90
2018-05-11T00:21:33.578Z,11.80
2018-05-11T00:24:02.010Z,11.90
2018-05-11T00:28:59.800Z,11.90
2018-05-11T00:31:28.602Z,12.00
2018-05-11T00:36:26.502Z,11.90
2018-05-11T00:38:55.309Z,11.80
2018-05-11T00:41:23.723Z,11.80
2018-05-11T00:43:53.003Z,11.80
2018-05-11T00:51:20.030Z,11.70
2018-05-11T00:53:47.733Z,11.40
2018-05-11T00:56:16.167Z,11.60
2018-05-11T01:03:42.581Z,11.80
2018-05-11T01:08:39.254Z,12.00
2018-05-11T01:11:06.922Z,12.10
2018-05-11T01:13:34.594Z,11.90
2018-05-11T01:16:02.981Z,11.90
2018-05-11T01:18:32.141Z,12.00
2018-05-11T01:21:00.577Z,12.10
2018-05-11T01:23:28.211Z,12.50
2018-05-11T01:25:56.668Z,12.10
2018-05-11T01:28:24.743Z,12.30
2018-05-11T01:30:53.229Z,12.20
2018-05-11T01:35:49.872Z,11.90
2018-05-11T01:38:17.644Z,12.20
2018-05-11T01:40:46.028Z,12.20
2018-05-11T01:43:15.171Z,12.10
2018-05-11T01:45:43.223Z,12.20
2018-05-11T01:53:09.645Z,12.20
2018-05-11T01:58:07.050Z,12.30
2018-05-11T02:00:34.831Z,12.20
2018-05-11T02:03:03.345Z,12.30
2018-05-11T02:05:32.497Z,12.30
2018-05-11T02:08:00.540Z,12.50
2018-05-11T02:10:28.272Z,12.10
2018-05-11T02:12:56.309Z,12.30
2018-05-11T02:15:24.712Z,12.20
2018-05-11T02:17:53.895Z,12.20
2018-05-11T02:20:23.045Z,12.10
2018-05-11T02:25:20.127Z,12.20
2018-05-11T02:27:48.939Z,12.30
2018-05-11T02:30:16.991Z,12.40
2018-05-11T02:32:45.171Z,12.10
2018-05-11T02:35:13.576Z,12.20
2018-05-11T02:40:11.346Z,12.30
2018-05-11T02:42:39.760Z,12.30
2018-05-11T02:45:07.432Z,12.30
2018-05-11T02:47:35.812Z,12.20
2018-05-11T02:50:04.661Z,12.20
2018-05-11T02:52:33.812Z,12.30
2018-05-11T02:57:30.900Z,12.30
2018-05-11T02:59:58.688Z,12.00
2018-05-11T03:04:56.103Z,12.30
2018-05-11T03:07:24.637Z,12.30
2018-05-11T03:12:22.033Z,12.30
2018-05-11T03:14:50.473Z,12.40
2018-05-11T03:17:18.251Z,12.30
2018-05-11T03:19:46.680Z,12.40
2018-05-11T03:22:14.349Z,12.40
2018-05-11T03:24:42.405Z,12.30
2018-05-11T03:27:10.471Z,12.30
2018-05-11T03:29:38.568Z,12.30
2018-05-11T03:32:07.828Z,12.40
2018-05-11T03:34:36.259Z,12.40
2018-05-11T03:37:04.297Z,12.60
2018-05-11T03:39:33.817Z,12.40
2018-05-11T03:42:02.226Z,12.30
2018-05-11T03:44:31.364Z,12.40
2018-05-11T03:46:59.035Z,12.70
2018-05-11T03:49:27.045Z,11.60
2018-05-11T03:51:55.473Z,12.40
2018-05-11T03:54:23.093Z,12.40
2018-05-11T03:56:51.263Z,12.30
2018-05-11T03:59:18.886Z,11.60
2018-05-11T04:01:59.608Z,12.30
2018-05-11T04:04:38.903Z,12.80
2018-05-11T04:07:18.784Z,12.20
2018-05-11T04:09:46.895Z,12.10
2018-05-11T04:12:14.667Z,12.40
2018-05-11T04:14:43.597Z,12.30
2018-05-11T04:17:11.264Z,12.10
2018-05-11T04:19:40.081Z,12.30
2018-05-11T04:22:08.830Z,12.30
2018-05-11T04:24:37.688Z,12.30
2018-05-11T04:27:06.472Z,12.30
2018-05-11T04:29:34.143Z,12.20
2018-05-11T04:32:02.560Z,12.20
2018-05-11T04:34:31.276Z,12.20
2018-05-11T04:36:59.664Z,12.20
2018-05-11T04:39:27.315Z,11.90
2018-05-11T04:41:55.719Z,12.20
2018-05-11T04:44:23.393Z,12.30
2018-05-11T04:46:51.862Z,12.30
2018-05-11T04:49:20.264Z,12.30
2018-05-11T04:54:17.686Z,12.20
2018-05-11T04:59:14.373Z,12.20
2018-05-11T05:01:42.433Z,12.20
2018-05-11T05:06:39.094Z,12.40
2018-05-11T05:09:07.233Z,12.30
2018-05-11T05:11:35.981Z,12.30
2018-05-11T05:14:04.784Z,12.30
2018-05-11T05:16:32.439Z,11.80
2018-05-11T05:19:01.022Z,12.30
2018-05-11T05:21:29.384Z,12.30
2018-05-11T05:23:58.189Z,12.40
2018-05-11T05:26:27.365Z,12.40
2018-05-11T05:28:55.783Z,12.40
2018-05-11T05:31:23.434Z,12.50
2018-05-11T05:33:51.481Z,12.20
2018-05-11T05:36:19.902Z,12.30
2018-05-11T05:38:49.025Z,12.30
2018-05-11T05:41:18.335Z,12.30
2018-05-11T05:43:45.966Z,12.20
2018-05-11T05:46:14.001Z,12.20
2018-05-11T05:48:41.660Z,12.40
2018-05-11T05:51:10.062Z,12.20
2018-05-11T05:53:38.491Z,12.20
2018-05-11T05:56:07.622Z,12.20
2018-05-11T05:58:36.469Z,12.20
2018-05-11T06:01:04.067Z,12.00
2018-05-11T06:03:32.107Z,12.20
2018-05-11T06:08:29.177Z,12.30
2018-05-11T06:10:56.993Z,12.50
2018-05-11T06:13:25.700Z,12.40
2018-05-11T06:15:54.133Z,12.50
2018-05-11T06:18:21.764Z,12.50
2018-05-11T06:20:50.227Z,12.60
2018-05-11T06:23:19.022Z,12.60
2018-05-11T06:25:47.799Z,12.70
2018-05-11T06:28:16.625Z,12.80
2018-05-11T06:30:45.079Z,12.80
2018-05-11T06:33:14.236Z,12.90
2018-05-11T06:35:41.902Z,12.90
2018-05-11T06:38:09.957Z,12.90
2018-05-11T06:40:38.089Z,12.90
2018-05-11T06:43:06.208Z,12.40
2018-05-11T06:45:34.594Z,13.00
2018-05-11T06:48:02.645Z,13.20
2018-05-11T06:50:30.330Z,13.50
2018-05-11T06:52:57.984Z,13.20
2018-05-11T06:55:26.090Z,13.50
2018-05-11T06:57:54.533Z,13.40
2018-05-11T07:00:22.183Z,13.30
2018-05-11T07:02:49.825Z,13.60
2018-05-11T07:05:17.879Z,13.40
2018-05-11T07:07:46.675Z,13.70
2018-05-11T07:10:15.483Z,13.70
2018-05-11T07:12:43.895Z,14.00
2018-05-11T07:15:11.943Z,14.30
2018-05-11T07:17:40.352Z,14.20
2018-05-11T07:20:08.744Z,14.30
2018-05-11T07:22:36.429Z,14.30
2018-05-11T07:25:05.208Z,14.60
2018-05-11T07:27:33.273Z,14.90
2018-05-11T07:30:02.406Z,15.10
2018-05-11T07:32:30.846Z,15.30
2018-05-11T07:34:58.481Z,15.70
2018-05-11T07:37:26.911Z,15.40
2018-05-11T07:39:55.748Z,15.60
2018-05-11T07:42:24.129Z,15.70
2018-05-11T07:44:52.209Z,15.90
2018-05-11T07:47:20.283Z,16.10
2018-05-11T07:49:49.468Z,16.00
2018-05-11T07:52:17.859Z,16.10
2018-05-11T07:54:45.474Z,16.30
2018-05-11T07:57:13.551Z,15.90
2018-05-11T07:59:42.291Z,15.70
2018-05-11T08:02:10.721Z,15.50
2018-05-11T08:04:38.505Z,15.50
2018-05-11T08:07:06.899Z,15.70
2018-05-11T08:09:34.534Z,15.70
2018-05-11T08:12:03.004Z,15.90
2018-05-11T08:14:30.645Z,16.20
2018-05-11T08:16:59.445Z,15.70
2018-05-11T08:19:28.270Z,15.90
2018-05-11T08:21:56.309Z,15.90
2018-05-11T08:24:24.773Z,15.90
2018-05-11T08:26:53.640Z,15.90
2018-05-11T08:29:22.413Z,15.70
2018-05-11T08:31:50.180Z,15.60
2018-05-11T08:34:18.654Z,16.20
2018-05-11T08:36:47.033Z,16.10
2018-05-11T08:44:12.624Z,16.30
2018-05-11T08:46:40.679Z,16.20
2018-05-11T08:49:09.682Z,16.70
2018-05-11T08:51:38.127Z,16.70
2018-05-11T08:54:06.978Z,16.80
2018-05-11T08:56:35.751Z,17.10
2018-05-11T08:59:04.188Z,17.60
2018-05-11T09:01:34.186Z,17.80
2018-05-11T09:04:02.308Z,17.90
2018-05-11T09:06:30.743Z,18.70
2018-05-11T09:08:59.172Z,19.10
2018-05-11T09:11:27.950Z,19.40
2018-05-11T09:13:56.183Z,19.30
2018-05-11T09:16:24.594Z,19.10
2018-05-11T09:18:53.380Z,18.80
2018-05-11T09:21:21.206Z,18.70
2018-05-11T09:23:49.960Z,18.40
2018-05-11T09:26:17.985Z,18.80
2018-05-11T09:28:45.650Z,19.00
2018-05-11T09:31:14.052Z,19.60
2018-05-11T09:33:42.867Z,19.70
2018-05-11T09:36:11.295Z,19.50
2018-05-11T09:38:38.945Z,19.50
2018-05-11T09:41:06.980Z,19.60
2018-05-11T09:43:35.411Z,19.80
2018-05-11T09:46:04.616Z,19.80
2018-05-11T09:48:32.262Z,19.50
2018-05-11T09:51:00.679Z,19.40
2018-05-11T09:53:29.525Z,20.00
2018-05-11T09:55:57.959Z,20.50
2018-05-11T09:58:27.097Z,20.80
2018-05-11T10:00:54.764Z,20.80
2018-05-11T10:03:23.176Z,21.10
2018-05-11T10:05:51.599Z,21.10
2018-05-11T10:08:20.373Z,21.00
2018-05-11T10:10:48.021Z,20.90
2018-05-11T10:13:16.427Z,21.30
2018-05-11T10:15:44.055Z,21.50
2018-05-11T10:18:12.447Z,21.50
2018-05-11T10:20:41.267Z,21.50
2018-05-11T10:23:09.659Z,21.50
2018-05-11T10:25:37.320Z,21.50
2018-05-11T10:30:35.671Z,21.60
2018-05-11T10:35:33.488Z,22.20
2018-05-11T10:40:30.336Z,22.40
2018-05-11T10:42:58.735Z,21.70
2018-05-11T10:47:55.497Z,21.60
2018-05-11T10:50:23.572Z,21.30
2018-05-11T10:52:51.335Z,21.90
2018-05-11T10:55:19.723Z,21.40
2018-05-11T10:57:47.359Z,21.20
2018-05-11T11:00:15.418Z,20.70
2018-05-11T11:02:43.673Z,20.60
2018-05-11T11:05:11.370Z,20.70
2018-05-11T11:07:39.764Z,20.20
2018-05-11T11:10:08.178Z,20.40
2018-05-11T11:12:36.999Z,20.20
2018-05-11T11:15:05.929Z,20.30
2018-05-11T11:17:34.790Z,20.10
2018-05-11T11:20:03.264Z,20.30
2018-05-11T11:22:30.897Z,20.20
2018-05-11T11:29:57.748Z,20.60
2018-05-11T11:32:26.205Z,21.30
2018-05-11T11:34:54.222Z,21.60
2018-05-11T11:37:22.629Z,21.90
2018-05-11T11:39:50.263Z,21.60
2018-05-11T11:44:47.771Z,20.70
2018-05-11T11:47:16.016Z,20.70
2018-05-11T11:49:45.386Z,20.60
2018-05-11T11:52:13.029Z,20.20
2018-05-11T11:54:41.443Z,20.30
2018-05-11T11:57:10.676Z,20.10
2018-05-11T11:59:39.434Z,20.00
2018-05-11T12:02:07.491Z,20.20
2018-05-11T12:04:35.907Z,20.30
2018-05-11T12:07:03.965Z,20.20
2018-05-11T12:09:32.395Z,21.40
2018-05-11T12:12:00.788Z,22.40
2018-05-11T12:14:29.602Z,22.40
2018-05-11T12:16:57.235Z,22.00
2018-05-11T12:19:25.679Z,22.30
2018-05-11T12:24:23.481Z,22.10
2018-05-11T12:26:51.875Z,22.00
2018-05-11T12:29:19.515Z,22.00
2018-05-11T12:31:48.303Z,22.20
2018-05-11T12:34:16.702Z,22.40
2018-05-11T12:36:45.104Z,22.90
2018-05-11T12:39:12.745Z,22.70
2018-05-11T12:41:41.184Z,22.90
2018-05-11T12:44:08.811Z,23.00
2018-05-11T12:46:36.887Z,21.70
2018-05-11T12:49:05.683Z,22.10
2018-05-11T12:51:33.722Z,22.00
2018-05-11T12:54:01.796Z,21.50
2018-05-11T12:56:30.556Z,21.40
2018-05-11T12:58:58.724Z,21.00
2018-05-11T13:01:26.401Z,21.30
2018-05-11T13:03:54.804Z,21.00
2018-05-11T13:06:22.468Z,20.70
2018-05-11T13:08:50.937Z,20.50
2018-05-11T13:11:20.067Z,20.30
2018-05-11T13:13:48.466Z,20.00
2018-05-11T13:16:16.143Z,20.00
2018-05-11T13:18:44.186Z,20.50
2018-05-11T13:21:12.996Z,20.60
2018-05-11T13:23:41.019Z,20.80
2018-05-11T13:28:38.503Z,20.90
2018-05-11T13:31:06.566Z,21.10
2018-05-11T13:33:34.220Z,20.50
2018-05-11T13:36:02.651Z,20.90
2018-05-11T13:38:31.062Z,20.80
2018-05-11T13:43:28.589Z,20.50
2018-05-11T13:45:56.203Z,20.10
2018-05-11T13:48:24.310Z,20.30
2018-05-11T13:50:51.904Z,20.80
2018-05-11T13:53:20.303Z,20.90
2018-05-11T13:55:47.978Z,21.10
2018-05-11T13:58:16.012Z,20.60
2018-05-11T14:00:43.674Z,20.40
2018-05-11T14:03:11.741Z,20.40
2018-05-11T14:05:39.518Z,20.10
2018-05-11T14:08:07.932Z,20.40
2018-05-11T14:10:35.978Z,20.40
2018-05-11T14:13:04.775Z,20.40
2018-05-11T14:15:32.845Z,20.60
2018-05-11T14:18:01.387Z,20.90
2018-05-11T14:20:29.869Z,21.50
2018-05-11T14:22:59.078Z,22.40
2018-05-11T14:27:56.859Z,23.60
2018-05-11T14:30:25.285Z,23.80
2018-05-11T14:33:05.126Z,24.60
2018-05-11T14:35:33.163Z,25.30
2018-05-11T14:38:01.561Z,25.40
2018-05-11T14:40:30.712Z,25.00
2018-05-11T14:42:59.792Z,24.70
2018-05-11T14:45:27.521Z,24.00
2018-05-11T14:47:55.927Z,24.00
2018-05-11T14:50:23.586Z,23.10
2018-05-11T14:52:52.420Z,23.00
2018-05-11T14:55:20.495Z,24.10
2018-05-11T14:57:48.533Z,25.30
2018-05-11T15:00:16.565Z,27.70
2018-05-11T15:02:44.966Z,28.30
2018-05-11T15:05:14.147Z,29.00
2018-05-11T15:07:42.166Z,30.00
2018-05-11T15:10:11.049Z,29.70
2018-05-11T15:12:39.871Z,30.40
2018-05-11T15:15:08.779Z,30.60
2018-05-11T15:17:37.181Z,30.60
2018-05-11T15:20:04.855Z,29.80
2018-05-11T15:22:33.646Z,29.60
2018-05-11T15:25:02.802Z,28.90
2018-05-11T15:27:30.857Z,28.70
2018-05-11T15:29:58.505Z,28.60
2018-05-11T15:32:27.089Z,28.50
2018-05-11T15:37:24.220Z,28.60
2018-05-11T15:39:51.879Z,29.70
2018-05-11T15:42:20.361Z,30.10
2018-05-11T15:44:49.159Z,29.50
2018-05-11T15:47:17.581Z,29.30
2018-05-11T15:49:45.671Z,30.10
2018-05-11T15:52:13.706Z,30.40
2018-05-11T15:57:10.779Z,26.90
2018-05-11T16:04:37.194Z,26.90
2018-05-11T16:07:04.815Z,26.70
2018-05-11T16:09:32.907Z,27.00
2018-05-11T16:12:00.978Z,27.00
2018-05-11T16:14:28.689Z,27.10
2018-05-11T16:19:25.720Z,26.20
2018-05-11T16:21:54.124Z,26.00
2018-05-11T16:24:21.751Z,26.30
2018-05-11T16:34:16.511Z,29.10
2018-05-11T16:36:45.290Z,29.20
2018-05-11T16:39:13.696Z,29.40
2018-05-11T16:41:41.364Z,28.80
2018-05-11T16:46:38.725Z,25.70
2018-05-11T16:49:07.560Z,24.80
2018-05-11T16:51:36.320Z,24.10
2018-05-11T16:54:04.777Z,23.50
2018-05-11T16:56:32.446Z,23.00
2018-05-11T16:59:00.482Z,22.70
2018-05-11T17:01:28.536Z,22.80
2018-05-11T17:03:57.058Z,22.80
2018-05-11T17:06:25.462Z,22.60
2018-05-11T17:08:54.237Z,22.90
2018-05-11T17:11:22.655Z,22.90
2018-05-11T17:13:50.285Z,23.10
2018-05-11T17:16:19.113Z,23.30
2018-05-11T17:21:17.068Z,23.40
2018-05-11T17:23:45.511Z,23.10
2018-05-11T17:26:13.180Z,23.10
2018-05-11T17:28:41.595Z,23.20
2018-05-11T17:31:10.760Z,23.20
2018-05-11T17:33:38.856Z,23.30
2018-05-11T17:36:06.527Z,22.70
2018-05-11T17:38:34.618Z,22.60
2018-05-11T17:41:02.308Z,22.50
2018-05-11T17:43:30.756Z,21.90
2018-05-11T17:45:59.550Z,21.60
2018-05-11T17:48:28.466Z,21.20
2018-05-11T17:50:57.621Z,20.90
2018-05-11T17:53:26.005Z,20.40
2018-05-11T17:55:54.116Z,20.40
2018-05-11T17:58:21.841Z,20.60
2018-05-11T18:00:50.249Z,20.20
2018-05-11T18:03:19.026Z,20.10
2018-05-11T18:05:47.078Z,20.00
2018-05-11T18:08:15.161Z,19.80
2018-05-11T18:10:43.565Z,19.70
2018-05-11T18:13:11.601Z,19.60
2018-05-11T18:15:39.969Z,19.50
2018-05-11T18:18:08.818Z,19.40
2018-05-11T18:20:36.842Z,19.80
2018-05-11T18:23:05.985Z,19.30
2018-05-11T18:25:34.147Z,19.00
2018-05-11T18:28:02.011Z,18.80
2018-05-11T18:30:30.430Z,19.20
2018-05-11T18:32:58.069Z,19.10
2018-05-11T18:35:26.477Z,19.00
2018-05-11T18:37:54.168Z,18.90
2018-05-11T18:40:21.832Z,18.90
2018-05-11T18:42:49.451Z,19.00
2018-05-11T18:45:17.899Z,18.70
2018-05-11T18:47:45.560Z,18.40
2018-05-11T18:50:13.963Z,18.40
2018-05-11T18:52:41.843Z,18.70
2018-05-11T18:55:09.881Z,18.40
2018-05-11T18:57:38.642Z,18.30
2018-05-11T19:00:07.562Z,18.10
2018-05-11T19:02:35.969Z,17.90
2018-05-11T19:05:04.077Z,17.80
2018-05-11T19:07:32.487Z,17.70
2018-05-11T19:10:00.524Z,17.50
2018-05-11T19:12:28.234Z,17.50
2018-05-11T19:14:56.631Z,17.30
2018-05-11T19:17:25.089Z,17.20
2018-05-11T19:19:52.724Z,17.10
2018-05-11T19:22:21.152Z,17.00
2018-05-11T19:24:49.976Z,16.80
2018-05-11T19:27:18.445Z,16.90
2018-05-11T19:29:46.064Z,17.00
2018-05-11T19:32:14.505Z,16.80
2018-05-11T19:37:11.922Z,16.80
2018-05-11T19:39:39.592Z,17.00
2018-05-11T19:42:08.040Z,16.80
2018-05-11T19:44:35.713Z,16.90
2018-05-11T19:47:04.562Z,16.80
2018-05-11T19:49:33.468Z,16.80
2018-05-11T19:52:02.275Z,16.90
2018-05-11T19:54:31.040Z,17.00
2018-05-11T19:57:01.589Z,17.00
2018-05-11T19:59:30.519Z,17.00
2018-05-11T20:01:58.167Z,17.40
2018-05-11T20:04:26.623Z,17.00
2018-05-11T20:06:55.040Z,17.00
2018-05-11T20:09:23.073Z,17.00
2018-05-11T20:14:21.277Z,16.70
2018-05-11T20:16:49.333Z,16.80
2018-05-11T20:19:18.108Z,16.70
2018-05-11T20:21:46.157Z,16.60
2018-05-11T20:24:14.657Z,16.60
2018-05-11T20:26:42.266Z,16.80
2018-05-11T20:29:10.726Z,16.60
2018-05-11T20:34:09.751Z,16.60
2018-05-11T20:36:37.901Z,16.70
2018-05-11T20:41:34.931Z,16.50
2018-05-11T20:44:03.719Z,16.60
2018-05-11T20:46:31.776Z,16.60
2018-05-11T20:51:28.492Z,16.40
2018-05-11T20:53:56.906Z,16.60
2018-05-11T20:56:25.688Z,16.60
2018-05-11T20:58:53.826Z,16.30
2018-05-11T21:01:21.452Z,16.30
2018-05-11T21:03:49.497Z,16.40
2018-05-11T21:08:46.915Z,16.40
2018-05-11T21:11:14.995Z,16.20
2018-05-11T21:13:43.385Z,16.30
2018-05-11T21:18:41.558Z,16.20
2018-05-11T21:21:09.282Z,16.10
2018-05-11T21:23:38.183Z,16.10
2018-05-11T21:26:06.997Z,16.00
2018-05-11T21:28:35.055Z,16.00
2018-05-11T21:31:03.502Z,16.00
2018-05-11T21:33:31.240Z,15.90
2018-05-11T21:38:28.260Z,16.00
2018-05-11T21:40:55.942Z,16.10
2018-05-11T21:43:24.859Z,15.80
2018-05-11T21:45:53.261Z,16.00
2018-05-11T21:53:19.711Z,15.90
2018-05-11T21:55:48.530Z,15.90
2018-05-11T21:58:16.246Z,15.80
2018-05-11T22:00:44.046Z,15.60
2018-05-11T22:03:13.183Z,15.90
2018-05-11T22:05:41.574Z,15.90
2018-05-11T22:08:09.254Z,16.00
2018-05-11T22:10:36.879Z,15.70
2018-05-11T22:13:05.397Z,15.80
2018-05-11T22:15:33.422Z,15.80
2018-05-11T22:18:02.206Z,20.20
2018-05-11T22:20:31.014Z,15.80
2018-05-11T22:25:28.538Z,15.80
2018-05-11T22:27:56.186Z,15.70
2018-05-11T22:30:24.559Z,15.80
2018-05-11T22:32:52.333Z,16.20
2018-05-11T22:35:20.346Z,15.80
2018-05-11T22:37:48.743Z,15.60
2018-05-11T22:40:16.373Z,16.00
2018-05-11T22:42:45.132Z,15.80
2018-05-11T22:45:12.801Z,15.50
2018-05-11T22:47:41.217Z,15.80
2018-05-11T22:50:09.671Z,15.80
2018-05-11T22:52:38.141Z,15.70
2018-05-11T22:57:36.259Z,15.70
2018-05-11T23:00:04.997Z,15.60
2018-05-11T23:02:33.819Z,15.60
2018-05-11T23:05:01.501Z,15.70
2018-05-11T23:09:59.051Z,15.60
2018-05-11T23:14:56.468Z,15.50
2018-05-11T23:17:24.924Z,15.50
2018-05-11T23:19:53.720Z,15.50
2018-05-11T23:22:21.390Z,15.50
2018-05-11T23:24:49.539Z,15.40
2018-05-11T23:27:17.240Z,15.50
2018-05-11T23:29:45.303Z,15.40
2018-05-11T23:32:14.057Z,15.40
2018-05-11T23:34:42.875Z,15.40
2018-05-11T23:39:39.995Z,15.40
2018-05-11T23:42:08.035Z,15.40
2018-05-11T23:44:36.418Z,15.30
2018-05-11T23:47:05.350Z,15.20
2018-05-11T23:52:02.719Z,15.10
2018-05-11T23:54:31.911Z,15.00
2018-05-11T23:57:00.289Z,15.00
2018-05-11T23:59:28.068Z,15.10
